Wallingford, Pennsylvania
Current Conditions -  °F | °C
As of 9:54 AM on Monday 22 Dec 2014 (Local Time) from KPHL Reporting Station
Scattered Clouds Scattered Clouds  
Wind Chill: 34°   Ceiling: Unl
Heat Index: 39°   Visibility: 10mi
Dew Point: 31°   Wind: 7mph
Humidity: 73%   Direction: 60°ENE
Pressure: 30.32"   Gusts: NA
Location:  39.89°N, 75.36°W
Report Text: KPHL 221454Z 06006KT 10SM FEW022 FEW080 SCT240 04/M01 A3032 RMK AO2 SLP268 T00391006 53003
Loading
Personal Weather Stations






























Interactive Weather Map New forecast layout! Learn more

10-Day Weather Forecast

Advertisements
Track Severe Weather on mobile